createdAt,value
2018-11-23T00:02:03.477Z,97356.00
2018-11-23T00:04:33.228Z,97345.00
2018-11-23T00:07:02.904Z,97347.00
2018-11-23T00:09:39.026Z,97353.00
2018-11-23T00:12:08.768Z,97354.00
2018-11-23T00:14:38.783Z,97353.00
2018-11-23T00:17:08.570Z,97350.00
2018-11-23T00:19:38.376Z,97354.00
2018-11-23T00:22:08.547Z,97346.00
2018-11-23T00:24:38.259Z,97352.00
2018-11-23T00:27:08.025Z,97346.00
2018-11-23T00:29:39.796Z,97349.00
2018-11-23T00:32:09.479Z,97350.00
2018-11-23T00:34:39.323Z,97353.00
2018-11-23T00:37:09.107Z,97355.00
2018-11-23T00:39:38.787Z,97363.00
2018-11-23T00:42:08.587Z,97375.00
2018-11-23T00:44:38.153Z,97379.00
2018-11-23T00:47:07.890Z,97377.00
2018-11-23T00:49:37.707Z,97377.00
2018-11-23T00:52:07.899Z,97378.00
2018-11-23T00:54:37.568Z,97385.00
2018-11-23T00:57:07.336Z,97386.00
2018-11-23T00:59:37.666Z,97380.00
2018-11-23T01:02:08.757Z,97382.00
2018-11-23T01:04:39.191Z,97384.00
2018-11-23T01:07:31.941Z,97385.00
2018-11-23T01:10:01.756Z,97385.00
2018-11-23T01:12:31.459Z,97392.00
2018-11-23T01:15:01.213Z,97392.00
2018-11-23T01:17:30.901Z,97391.00
2018-11-23T01:20:00.563Z,97395.00
2018-11-23T01:22:30.368Z,97394.00
2018-11-23T01:25:00.308Z,97396.00
2018-11-23T01:27:30.038Z,97396.00
2018-11-23T01:29:59.723Z,97394.00
2018-11-23T01:32:29.440Z,97400.00
2018-11-23T01:34:59.116Z,97407.00
2018-11-23T01:37:28.809Z,97405.00
2018-11-23T01:39:58.535Z,97408.00
2018-11-23T01:42:28.287Z,97399.00
2018-11-23T01:44:58.069Z,97391.00
2018-11-23T01:47:27.718Z,97387.00
2018-11-23T01:49:57.391Z,97384.00
2018-11-23T01:52:27.180Z,97385.00
2018-11-23T01:55:16.318Z,97385.00
2018-11-23T01:57:46.791Z,97382.00
2018-11-23T02:00:27.835Z,97384.00
2018-11-23T02:02:57.979Z,97390.00
2018-11-23T02:05:27.729Z,97376.00
2018-11-23T02:07:57.504Z,97382.00
2018-11-23T02:10:27.277Z,97382.00
2018-11-23T02:12:57.047Z,97379.00
2018-11-23T02:15:26.743Z,97374.00
2018-11-23T02:17:56.507Z,97364.00
2018-11-23T02:20:26.200Z,97362.00
2018-11-23T02:22:55.959Z,97362.00
2018-11-23T02:25:25.714Z,97366.00
2018-11-23T02:27:55.755Z,97363.00
2018-11-23T02:30:26.626Z,97361.00
2018-11-23T02:32:56.296Z,97357.00
2018-11-23T02:35:25.984Z,97364.00
2018-11-23T02:37:55.664Z,97362.00
2018-11-23T02:40:25.344Z,97364.00
2018-11-23T02:42:55.116Z,97368.00
2018-11-23T02:45:24.919Z,97369.00
2018-11-23T02:47:54.675Z,97374.00
2018-11-23T02:50:24.377Z,97375.00
2018-11-23T02:52:54.159Z,97378.00
2018-11-23T02:55:23.875Z,97382.00
2018-11-23T02:57:53.641Z,97383.00
2018-11-23T03:00:23.834Z,97381.00
2018-11-23T03:02:53.535Z,97382.00
2018-11-23T03:05:24.283Z,97382.00
2018-11-23T03:07:53.972Z,97390.00
2018-11-23T03:10:23.678Z,97385.00
2018-11-23T03:13:22.296Z,97385.00
2018-11-23T03:15:52.040Z,97383.00
2018-11-23T03:18:21.709Z,97385.00
2018-11-23T03:20:51.473Z,97376.00
2018-11-23T03:23:21.236Z,97375.00
2018-11-23T03:25:50.931Z,97375.00
2018-11-23T03:28:20.701Z,97381.00
2018-11-23T03:30:50.460Z,97379.00
2018-11-23T03:33:20.553Z,97384.00
2018-11-23T03:35:50.271Z,97376.00
2018-11-23T03:38:19.992Z,97374.00
2018-11-23T03:40:50.264Z,97385.00
2018-11-23T03:43:20.288Z,97380.00
2018-11-23T03:45:49.947Z,97374.00
2018-11-23T03:48:19.648Z,97374.00
2018-11-23T03:50:49.375Z,97374.00
2018-11-23T03:53:18.988Z,97373.00
2018-11-23T03:55:48.696Z,97373.00
2018-11-23T03:58:18.356Z,97375.00
2018-11-23T04:01:00.236Z,97381.00
2018-11-23T04:03:30.320Z,97383.00
2018-11-23T04:05:59.983Z,97380.00
2018-11-23T04:08:29.779Z,97377.00
2018-11-23T04:10:59.484Z,97381.00
2018-11-23T04:13:29.096Z,97383.00
2018-11-23T04:15:58.911Z,97379.00
2018-11-23T04:18:28.552Z,97380.00
2018-11-23T04:21:22.352Z,97385.00
2018-11-23T04:23:51.986Z,97383.00
2018-11-23T04:26:24.808Z,97382.00
2018-11-23T04:28:51.403Z,97384.00
2018-11-23T04:31:21.134Z,97383.00
2018-11-23T04:33:50.871Z,97379.00
2018-11-23T04:36:20.563Z,97380.00
2018-11-23T04:38:50.280Z,97385.00
2018-11-23T04:41:20.017Z,97382.00
2018-11-23T04:43:49.991Z,97375.00
2018-11-23T04:46:19.736Z,97378.00
2018-11-23T04:48:49.455Z,97369.00
2018-11-23T04:51:19.187Z,97371.00
2018-11-23T04:53:49.140Z,97373.00
2018-11-23T04:56:30.359Z,97374.00
2018-11-23T04:59:00.296Z,97368.00
2018-11-23T05:01:30.012Z,97362.00
2018-11-23T05:04:05.589Z,97367.00
2018-11-23T05:06:35.651Z,97365.00
2018-11-23T05:09:07.591Z,97366.00
2018-11-23T05:11:37.272Z,97359.00
2018-11-23T05:14:07.035Z,97358.00
2018-11-23T05:16:36.768Z,97357.00
2018-11-23T05:19:06.835Z,97349.00
2018-11-23T05:21:36.569Z,97349.00
2018-11-23T05:24:06.532Z,97343.00
2018-11-23T05:26:36.191Z,97342.00
2018-11-23T05:29:06.194Z,97345.00
2018-11-23T05:31:35.868Z,97343.00
2018-11-23T05:34:05.763Z,97337.00
2018-11-23T05:36:40.072Z,97338.00
2018-11-23T05:39:10.592Z,97339.00
2018-11-23T05:41:41.287Z,97339.00
2018-11-23T05:44:14.785Z,97340.00
2018-11-23T05:46:44.436Z,97341.00
2018-11-23T05:49:14.057Z,97333.00
2018-11-23T05:51:43.853Z,97324.00
2018-11-23T05:54:13.608Z,97319.00
2018-11-23T05:56:43.383Z,97322.00
2018-11-23T05:59:13.043Z,97322.00
2018-11-23T06:01:42.894Z,97326.00
2018-11-23T06:04:43.012Z,97338.00
2018-11-23T06:07:13.091Z,97336.00
2018-11-23T06:09:42.779Z,97333.00
2018-11-23T06:12:12.447Z,97338.00
2018-11-23T06:14:43.263Z,97341.00
2018-11-23T06:17:13.047Z,97342.00
2018-11-23T06:19:43.490Z,97337.00
2018-11-23T06:22:31.419Z,97336.00
2018-11-23T06:25:01.320Z,97345.00
2018-11-23T06:27:31.079Z,97355.00
2018-11-23T06:30:06.796Z,97358.00
2018-11-23T06:32:53.273Z,97355.00
2018-11-23T06:35:23.597Z,97366.00
2018-11-23T06:37:57.932Z,97362.00
2018-11-23T06:40:27.667Z,97357.00
2018-11-23T06:42:57.684Z,97354.00
2018-11-23T06:45:27.542Z,97358.00
2018-11-23T06:47:57.240Z,97363.00
2018-11-23T06:50:26.960Z,97359.00
2018-11-23T06:52:56.623Z,97356.00
2018-11-23T06:55:27.477Z,97346.00
2018-11-23T06:57:57.079Z,97346.00
2018-11-23T07:00:26.797Z,97344.00
2018-11-23T07:02:59.223Z,97341.00
2018-11-23T07:05:26.287Z,97334.00
2018-11-23T07:07:56.093Z,97344.00
2018-11-23T07:10:25.765Z,97342.00
2018-11-23T07:12:55.544Z,97336.00
2018-11-23T07:15:25.311Z,97330.00
2018-11-23T07:17:55.903Z,97331.00
2018-11-23T07:20:25.603Z,97330.00
2018-11-23T07:22:55.318Z,97331.00
2018-11-23T07:25:25.014Z,97330.00
2018-11-23T07:27:54.696Z,97329.00
2018-11-23T07:30:26.084Z,97324.00
2018-11-23T07:32:56.013Z,97323.00
2018-11-23T07:35:25.684Z,97317.00
2018-11-23T07:37:55.536Z,97313.00
2018-11-23T07:40:44.120Z,97304.00
2018-11-23T07:43:19.055Z,97309.00
2018-11-23T07:45:48.714Z,97321.00
2018-11-23T07:48:18.416Z,97327.00
2018-11-23T07:50:48.147Z,97322.00
2018-11-23T07:53:17.965Z,97307.00
2018-11-23T07:55:47.632Z,97300.00
2018-11-23T07:58:17.398Z,97310.00
2018-11-23T08:00:47.051Z,97323.00
2018-11-23T08:03:16.753Z,97317.00
2018-11-23T08:05:46.452Z,97322.00
2018-11-23T08:08:16.205Z,97329.00
2018-11-23T08:10:44.943Z,97320.00
2018-11-23T08:13:14.628Z,97315.00
2018-11-23T08:15:44.349Z,97315.00
2018-11-23T08:18:14.073Z,97315.00
2018-11-23T08:20:43.751Z,97310.00
2018-11-23T08:23:13.409Z,97310.00
2018-11-23T08:25:43.780Z,97319.00
2018-11-23T08:28:13.470Z,97312.00
2018-11-23T08:30:43.175Z,97319.00
2018-11-23T08:33:12.871Z,97324.00
2018-11-23T08:35:42.592Z,97333.00
2018-11-23T08:38:12.374Z,97327.00
2018-11-23T08:40:42.044Z,97329.00
2018-11-23T08:43:23.670Z,97315.00
2018-11-23T08:45:53.456Z,97313.00
2018-11-23T08:48:23.361Z,97308.00
2018-11-23T08:50:53.100Z,97303.00
2018-11-23T08:53:30.996Z,97291.00
2018-11-23T08:56:00.700Z,97291.00
2018-11-23T08:58:30.347Z,97284.00
2018-11-23T09:01:00.128Z,97290.00
2018-11-23T09:03:29.828Z,97289.00
2018-11-23T09:05:59.572Z,97290.00
2018-11-23T09:08:29.267Z,97284.00
2018-11-23T09:10:58.931Z,97291.00
2018-11-23T09:13:29.333Z,97286.00
2018-11-23T09:15:58.968Z,97287.00
2018-11-23T09:18:28.723Z,97288.00
2018-11-23T09:20:59.097Z,97278.00
2018-11-23T09:23:28.808Z,97270.00
2018-11-23T09:25:58.524Z,97268.00
2018-11-23T09:28:28.228Z,97260.00
2018-11-23T09:30:57.991Z,97264.00
2018-11-23T09:33:27.767Z,97267.00
2018-11-23T09:35:57.455Z,97258.00
2018-11-23T09:38:27.176Z,97255.00
2018-11-23T09:40:57.370Z,97246.00
2018-11-23T09:43:27.037Z,97237.00
2018-11-23T09:45:56.650Z,97245.00
2018-11-23T09:48:26.443Z,97250.00
2018-11-23T09:50:56.035Z,97241.00
2018-11-23T09:53:26.392Z,97242.00
2018-11-23T09:55:56.224Z,97235.00
2018-11-23T09:58:26.344Z,97230.00
2018-11-23T10:00:56.073Z,97223.00
2018-11-23T10:03:25.742Z,97217.00
2018-11-23T10:05:55.456Z,97212.00
2018-11-23T10:08:25.210Z,97218.00
2018-11-23T10:10:54.944Z,97218.00
2018-11-23T10:13:24.743Z,97219.00
2018-11-23T10:18:56.667Z,97209.00
2018-11-23T10:21:26.483Z,97203.00
2018-11-23T10:23:56.232Z,97198.00
2018-11-23T10:26:25.907Z,97184.00
2018-11-23T10:28:55.664Z,97173.00
2018-11-23T10:31:25.432Z,97172.00
2018-11-23T10:33:55.149Z,97174.00
2018-11-23T10:36:24.824Z,97165.00
2018-11-23T10:38:54.501Z,97172.00
2018-11-23T10:41:24.343Z,97166.00
2018-11-23T10:43:54.010Z,97162.00
2018-11-23T10:46:24.331Z,97159.00
2018-11-23T10:48:54.168Z,97148.00
2018-11-23T10:51:23.820Z,97146.00
2018-11-23T10:53:53.568Z,97142.00
2018-11-23T10:56:23.279Z,97139.00
2018-11-23T10:58:52.999Z,97134.00
2018-11-23T11:01:27.774Z,97127.00
2018-11-23T11:04:00.989Z,97128.00
2018-11-23T11:06:35.947Z,97123.00
2018-11-23T11:09:08.472Z,97112.00
2018-11-23T11:11:38.409Z,97095.00
2018-11-23T11:14:08.712Z,97086.00
2018-11-23T11:16:38.362Z,97077.00
2018-11-23T11:19:08.384Z,97073.00
2018-11-23T11:21:38.138Z,97067.00
2018-11-23T11:24:07.830Z,97065.00
2018-11-23T11:26:37.564Z,97063.00
2018-11-23T11:29:07.616Z,97073.00
2018-11-23T11:31:37.339Z,97073.00
2018-11-23T11:34:07.390Z,97074.00
2018-11-23T11:36:37.087Z,97061.00
2018-11-23T11:39:11.171Z,97057.00
2018-11-23T11:41:41.132Z,97055.00
2018-11-23T11:44:10.790Z,97067.00
2018-11-23T11:46:40.448Z,97056.00
2018-11-23T11:49:10.111Z,97048.00
2018-11-23T11:51:40.060Z,97053.00
2018-11-23T11:54:09.814Z,97052.00
2018-11-23T11:56:39.495Z,97043.00
2018-11-23T11:59:09.222Z,97041.00
2018-11-23T12:01:38.996Z,97032.00
2018-11-23T12:04:08.680Z,97016.00
2018-11-23T12:06:38.488Z,97017.00
2018-11-23T12:09:11.503Z,97022.00
2018-11-23T12:11:41.515Z,97017.00
2018-11-23T12:14:11.214Z,97016.00
2018-11-23T12:16:40.800Z,97014.00
2018-11-23T12:19:10.443Z,97006.00
2018-11-23T12:21:40.140Z,97008.00
2018-11-23T12:24:09.911Z,97003.00
2018-11-23T12:26:41.919Z,96990.00
2018-11-23T12:29:11.754Z,96989.00
2018-11-23T12:31:41.669Z,96982.00
2018-11-23T12:34:11.362Z,96976.00
2018-11-23T12:36:41.278Z,96970.00
2018-11-23T12:39:27.639Z,96972.00
2018-11-23T12:41:57.536Z,96971.00
2018-11-23T12:44:44.323Z,96966.00
2018-11-23T12:47:14.045Z,96965.00
2018-11-23T12:49:43.787Z,96958.00
2018-11-23T12:52:13.476Z,96947.00
2018-11-23T12:54:44.300Z,96945.00
2018-11-23T12:57:14.320Z,96946.00
2018-11-23T12:59:47.552Z,96940.00
2018-11-23T13:02:46.069Z,96938.00
2018-11-23T13:05:16.044Z,96941.00
2018-11-23T13:07:45.705Z,96939.00
2018-11-23T13:10:15.311Z,96939.00
2018-11-23T13:12:50.717Z,96945.00
2018-11-23T13:15:14.968Z,96947.00
2018-11-23T13:17:44.631Z,96953.00
2018-11-23T13:20:15.896Z,96943.00
2018-11-23T13:22:47.731Z,96943.00
2018-11-23T13:25:21.461Z,96933.00
2018-11-23T13:27:51.715Z,96935.00
2018-11-23T13:30:28.492Z,96935.00
2018-11-23T13:32:58.374Z,96937.00
2018-11-23T13:35:28.556Z,96942.00
2018-11-23T13:40:58.371Z,96937.00
2018-11-23T13:43:28.500Z,96936.00
2018-11-23T13:45:58.436Z,96939.00
2018-11-23T13:48:28.560Z,96932.00
2018-11-23T13:50:58.635Z,96931.00
2018-11-23T13:53:29.610Z,96933.00
2018-11-23T13:56:01.450Z,96936.00
2018-11-23T13:58:58.194Z,96931.00
2018-11-23T14:01:27.957Z,96931.00
2018-11-23T14:07:13.259Z,96919.00
2018-11-23T14:09:42.967Z,96924.00
2018-11-23T14:12:12.899Z,96921.00
2018-11-23T14:14:42.635Z,96919.00
2018-11-23T14:17:29.867Z,96914.00
2018-11-23T14:20:00.075Z,96905.00
2018-11-23T14:22:44.147Z,96914.00
2018-11-23T14:25:17.384Z,96908.00
2018-11-23T14:27:47.662Z,96907.00
2018-11-23T14:30:20.280Z,96915.00
2018-11-23T14:32:50.389Z,96911.00
2018-11-23T14:35:22.311Z,96910.00
2018-11-23T14:37:53.587Z,96913.00
2018-11-23T14:40:23.356Z,96904.00
2018-11-23T14:42:53.645Z,96900.00
2018-11-23T14:45:29.301Z,96900.00
2018-11-23T14:48:01.549Z,96902.00
2018-11-23T14:50:49.932Z,96902.00
2018-11-23T14:53:20.064Z,96898.00
2018-11-23T14:55:50.368Z,96905.00
2018-11-23T14:58:20.223Z,96901.00
2018-11-23T15:00:57.576Z,96891.00
2018-11-23T15:03:27.811Z,96899.00
2018-11-23T15:05:57.942Z,96898.00
2018-11-23T15:08:27.708Z,96898.00
2018-11-23T15:10:57.555Z,96899.00
2018-11-23T15:13:34.364Z,96896.00
2018-11-23T15:16:07.133Z,96883.00
2018-11-23T15:18:41.587Z,96889.00
2018-11-23T15:21:11.358Z,96895.00
2018-11-23T15:23:41.853Z,96892.00
2018-11-23T15:26:11.672Z,96884.00
2018-11-23T15:28:42.416Z,96878.00
2018-11-23T15:31:31.165Z,96874.00
2018-11-23T15:34:01.039Z,96866.00
2018-11-23T15:36:30.800Z,96866.00
2018-11-23T15:39:00.659Z,96860.00
2018-11-23T15:41:31.231Z,96851.00
2018-11-23T15:44:01.414Z,96861.00
2018-11-23T15:46:31.371Z,96858.00
2018-11-23T15:49:15.893Z,96864.00
2018-11-23T15:51:45.757Z,96868.00
2018-11-23T15:54:15.529Z,96856.00
2018-11-23T15:56:46.040Z,96863.00
2018-11-23T15:59:15.875Z,96866.00
2018-11-23T16:01:45.927Z,96851.00
2018-11-23T16:04:15.772Z,96839.00
2018-11-23T16:06:49.083Z,96834.00
2018-11-23T16:09:25.594Z,96829.00
2018-11-23T16:11:55.905Z,96820.00
2018-11-23T16:14:32.835Z,96826.00
2018-11-23T16:17:23.247Z,96818.00
2018-11-23T16:19:53.335Z,96818.00
2018-11-23T16:22:23.028Z,96805.00
2018-11-23T16:24:53.288Z,96808.00
2018-11-23T16:27:23.223Z,96809.00
2018-11-23T16:29:56.773Z,96800.00
2018-11-23T16:32:45.191Z,96794.00
2018-11-23T16:35:26.219Z,96787.00
2018-11-23T16:37:56.949Z,96787.00
2018-11-23T16:40:28.654Z,96786.00
2018-11-23T16:43:01.107Z,96776.00
2018-11-23T16:45:33.180Z,96774.00
2018-11-23T16:48:04.322Z,96772.00
2018-11-23T16:50:39.540Z,96763.00
2018-11-23T16:53:14.299Z,96754.00
2018-11-23T16:55:45.115Z,96750.00
2018-11-23T16:58:15.129Z,96734.00
2018-11-23T17:00:46.513Z,96729.00
2018-11-23T17:03:25.919Z,96727.00
2018-11-23T17:05:57.045Z,96736.00
2018-11-23T17:08:45.012Z,96732.00
2018-11-23T17:11:14.919Z,96733.00
2018-11-23T17:13:45.214Z,96736.00
2018-11-23T17:16:32.290Z,96734.00
2018-11-23T17:19:07.138Z,96714.00
2018-11-23T17:21:43.772Z,96718.00
2018-11-23T17:24:13.514Z,96714.00
2018-11-23T17:26:43.380Z,96712.00
2018-11-23T17:29:13.191Z,96703.00
2018-11-23T17:31:43.063Z,96699.00
2018-11-23T17:34:12.932Z,96699.00
2018-11-23T17:36:42.575Z,96697.00
2018-11-23T17:39:12.327Z,96697.00
2018-11-23T17:41:42.248Z,96685.00
2018-11-23T17:44:11.955Z,96684.00
2018-11-23T17:46:42.612Z,96679.00
2018-11-23T17:49:12.444Z,96678.00
2018-11-23T17:51:42.176Z,96670.00
2018-11-23T17:54:11.819Z,96666.00
2018-11-23T17:56:41.548Z,96670.00
2018-11-23T17:59:11.212Z,96654.00
2018-11-23T18:01:41.005Z,96655.00
2018-11-23T18:04:26.608Z,96661.00
2018-11-23T18:06:56.439Z,96657.00
2018-11-23T18:09:27.251Z,96642.00
2018-11-23T18:11:57.093Z,96640.00
2018-11-23T18:14:26.752Z,96641.00
2018-11-23T18:16:56.619Z,96635.00
2018-11-23T18:19:26.522Z,96628.00
2018-11-23T18:21:56.857Z,96623.00
2018-11-23T18:24:26.669Z,96621.00
2018-11-23T18:26:56.571Z,96620.00
2018-11-23T18:29:26.231Z,96623.00
2018-11-23T18:31:55.991Z,96626.00
2018-11-23T18:34:25.678Z,96625.00
2018-11-23T18:36:56.276Z,96618.00
2018-11-23T18:39:26.067Z,96613.00
2018-11-23T18:41:55.837Z,96603.00
2018-11-23T18:44:25.596Z,96615.00
2018-11-23T18:46:55.223Z,96621.00
2018-11-23T18:49:25.296Z,96616.00
2018-11-23T18:51:55.406Z,96623.00
2018-11-23T18:54:25.368Z,96620.00
2018-11-23T18:56:55.257Z,96616.00
2018-11-23T18:59:24.988Z,96616.00
2018-11-23T19:01:54.824Z,96618.00
2018-11-23T19:04:26.683Z,96618.00
2018-11-23T19:06:56.405Z,96615.00
2018-11-23T19:09:26.097Z,96616.00
2018-11-23T19:11:55.889Z,96610.00
2018-11-23T19:14:25.611Z,96606.00
2018-11-23T19:16:58.898Z,96605.00
2018-11-23T19:19:28.607Z,96611.00
2018-11-23T19:21:59.042Z,96606.00
2018-11-23T19:24:29.195Z,96599.00
2018-11-23T19:27:13.849Z,96605.00
2018-11-23T19:29:43.579Z,96605.00
2018-11-23T19:32:20.608Z,96590.00
2018-11-23T19:34:50.491Z,96598.00
2018-11-23T19:37:21.417Z,96594.00
2018-11-23T19:39:51.213Z,96594.00
2018-11-23T19:42:22.636Z,96590.00
2018-11-23T19:44:55.686Z,96592.00
2018-11-23T19:47:33.532Z,96598.00
2018-11-23T19:50:03.382Z,96588.00
2018-11-23T19:52:37.386Z,96582.00
2018-11-23T19:55:09.043Z,96587.00
2018-11-23T19:57:43.112Z,96586.00
2018-11-23T20:00:18.758Z,96583.00
2018-11-23T20:02:48.646Z,96573.00
2018-11-23T20:05:19.221Z,96573.00
2018-11-23T20:07:51.362Z,96586.00
2018-11-23T20:10:22.903Z,96599.00
2018-11-23T20:13:03.128Z,96594.00
2018-11-23T20:15:33.357Z,96582.00
2018-11-23T20:18:03.238Z,96583.00
2018-11-23T20:20:39.012Z,96573.00
2018-11-23T20:23:10.040Z,96550.00
2018-11-23T20:25:39.960Z,96537.00
2018-11-23T20:28:10.598Z,96537.00
2018-11-23T20:30:42.598Z,96558.00
2018-11-23T20:33:16.982Z,96579.00
2018-11-23T20:35:50.995Z,96578.00
2018-11-23T20:38:29.114Z,96561.00
2018-11-23T20:41:04.775Z,96575.00
2018-11-23T20:43:48.449Z,96548.00
2018-11-23T20:46:22.541Z,96551.00
2018-11-23T20:48:52.668Z,96548.00
2018-11-23T20:51:22.409Z,96541.00
2018-11-23T20:53:53.351Z,96539.00
2018-11-23T20:56:23.280Z,96534.00
2018-11-23T20:58:52.991Z,96534.00
2018-11-23T21:01:26.610Z,96544.00
2018-11-23T21:03:56.712Z,96540.00
2018-11-23T21:06:37.565Z,96547.00
2018-11-23T21:09:10.769Z,96555.00
2018-11-23T21:11:40.423Z,96566.00
2018-11-23T21:14:10.447Z,96558.00
2018-11-23T21:16:40.468Z,96560.00
2018-11-23T21:19:10.171Z,96556.00
2018-11-23T21:21:46.804Z,96516.00
2018-11-23T21:24:20.376Z,96519.00
2018-11-23T21:27:07.917Z,96479.00
2018-11-23T21:29:40.786Z,96424.00
2018-11-23T21:32:12.572Z,96444.00
2018-11-23T21:34:55.078Z,96470.00
2018-11-23T21:37:26.885Z,96481.00
2018-11-23T21:39:58.210Z,96484.00
2018-11-23T21:42:28.917Z,96467.00
2018-11-23T21:44:58.944Z,96459.00
2018-11-23T21:47:28.866Z,96453.00
2018-11-23T21:49:58.884Z,96438.00
2018-11-23T21:52:28.513Z,96419.00
2018-11-23T21:55:00.054Z,96420.00
2018-11-23T21:57:30.909Z,96413.00
2018-11-23T22:00:02.845Z,96422.00
2018-11-23T22:02:32.483Z,96426.00
2018-11-23T22:05:04.245Z,96415.00
2018-11-23T22:07:34.015Z,96427.00
2018-11-23T22:10:10.664Z,96419.00
2018-11-23T22:12:46.967Z,96414.00
2018-11-23T22:15:37.892Z,96406.00
2018-11-23T22:18:08.268Z,96431.00
2018-11-23T22:20:38.032Z,96430.00
2018-11-23T22:23:09.588Z,96403.00
2018-11-23T22:26:01.966Z,96364.00
2018-11-23T22:28:31.763Z,96348.00
2018-11-23T22:31:08.354Z,96375.00
2018-11-23T22:33:44.806Z,96396.00
2018-11-23T22:36:17.889Z,96412.00
2018-11-23T22:38:47.860Z,96419.00
2018-11-23T22:41:18.384Z,96375.00
2018-11-23T22:43:48.139Z,96352.00
2018-11-23T22:46:18.139Z,96344.00
2018-11-23T22:48:51.705Z,96367.00
2018-11-23T22:51:21.695Z,96395.00
2018-11-23T22:54:07.413Z,96407.00
2018-11-23T22:56:37.420Z,96389.00
2018-11-23T22:59:07.724Z,96383.00
2018-11-23T23:01:51.369Z,96387.00
2018-11-23T23:04:21.110Z,96378.00
2018-11-23T23:06:51.176Z,96361.00
2018-11-23T23:09:22.298Z,96377.00
2018-11-23T23:11:52.105Z,96381.00
2018-11-23T23:14:23.151Z,96371.00
2018-11-23T23:16:57.013Z,96391.00
2018-11-23T23:19:29.114Z,96411.00
2018-11-23T23:22:10.400Z,96381.00
2018-11-23T23:24:40.462Z,96396.00
2018-11-23T23:27:10.279Z,96372.00
2018-11-23T23:29:40.199Z,96352.00
2018-11-23T23:32:10.135Z,96368.00
2018-11-23T23:34:39.870Z,96379.00
2018-11-23T23:37:09.604Z,96368.00
2018-11-23T23:39:39.422Z,96359.00
2018-11-23T23:42:09.179Z,96360.00
2018-11-23T23:44:39.489Z,96363.00
2018-11-23T23:47:09.160Z,96389.00
2018-11-23T23:49:38.955Z,96396.00
2018-11-23T23:52:08.667Z,96394.00
2018-11-23T23:54:41.012Z,96394.00
2018-11-23T23:57:20.898Z,96398.00
2018-11-23T23:59:52.267Z,96419.00
